Portada
METAR-TAF:

METAR-TAF

Aeropuertos :

Nuakchot, Mauritania

Aeropuerto Internacional de Nuakchot

latitud: 18-18-36N, longitud: 015-58-11W, altitud: 3 m

Observación

El informe se hizo hace 38 minutos, a las 22:00 UTC
Viento 18 kt del norte-noroeste
Temperatura 25°C
Humedad 79%
Presión 1011 hPa
Visibilidad: 6000 m

METAR: GQNO 222200Z 33018KT 6000 NSC 25/21 Q1011 NOSIG

Hora: 22:38 (22:38 UTC)

Pronóstico

El informe se hizo hace 17 horas y 38 minutos, a las 05:00 UTC
Pronóstico válido del 22 a las 06 UTC al 23 a las 12 UTC
Viento 14 kt del norte-noroeste
Visibilidad: 8000 m
Cielo nuboso a una altura de 800 ft
Evolucionando progresivamente
del 22 a las 09 UTC al 22 a las 11 UTC
Nubes dispersas a una altura de 800 ft
Probabilidad 40% :
Temporalmente
del 22 a las 17 UTC al 22 a las 20 UTC
Visibilidad: 4000 m
Ventisca alta de arena

TAF: GQNO 220500Z 2206/2312 33014KT 8000 BKN008 BECMG 2209/2211 SCT008 PROB40 TEMPO 2217/2220 4000 BLSA

Observaciones y pronósticos meteorológicos de más de 4000 aeropuertos (mensajes METAR y TAF).

Los puntos amarillos y rojos representan las estaciones disponibles.

Ponga el ratón en el punto deseado para ver el nombre de la estación.

Haga clic para ver las observaciones y los pronósticos meteorológicos.

Para cambiar el mapa : haga clic en los botones verdes con una cruz de color negro para hacer un zoom, en el botón verde con un guión para alejar o en las flechas verdes para mapas adyacentes.


METAR-TAF: